sensor_id;sensor_type;location;lat;lon;timestamp;temperature;humidity
27671;DHT22;15077;49.704;9.908;2023-08-17T00:00:15;25.70;61.80
27671;DHT22;15077;49.704;9.908;2023-08-17T00:02:43;25.70;62.00
27671;DHT22;15077;49.704;9.908;2023-08-17T00:05:09;25.70;61.90
27671;DHT22;15077;49.704;9.908;2023-08-17T00:07:36;25.70;62.10
27671;DHT22;15077;49.704;9.908;2023-08-17T00:10:03;25.60;62.00
27671;DHT22;15077;49.704;9.908;2023-08-17T00:12:29;25.60;62.10
27671;DHT22;15077;49.704;9.908;2023-08-17T00:14:55;25.60;62.00
27671;DHT22;15077;49.704;9.908;2023-08-17T00:17:21;25.60;62.10
27671;DHT22;15077;49.704;9.908;2023-08-17T00:19:48;25.60;62.10
27671;DHT22;15077;49.704;9.908;2023-08-17T00:22:13;25.50;62.20
27671;DHT22;15077;49.704;9.908;2023-08-17T00:24:39;25.50;62.20
27671;DHT22;15077;49.704;9.908;2023-08-17T00:27:07;25.40;62.20
27671;DHT22;15077;49.704;9.908;2023-08-17T00:29:34;25.40;62.30
27671;DHT22;15077;49.704;9.908;2023-08-17T00:32:01;25.40;62.30
27671;DHT22;15077;49.704;9.908;2023-08-17T00:34:29;25.40;62.40
27671;DHT22;15077;49.704;9.908;2023-08-17T00:36:56;25.40;62.40
27671;DHT22;15077;49.704;9.908;2023-08-17T00:39:24;25.40;62.50
27671;DHT22;15077;49.704;9.908;2023-08-17T00:41:52;25.30;62.50
27671;DHT22;15077;49.704;9.908;2023-08-17T00:44:18;25.30;62.60
27671;DHT22;15077;49.704;9.908;2023-08-17T00:46:44;25.30;62.60
27671;DHT22;15077;49.704;9.908;2023-08-17T00:49:10;25.30;62.60
27671;DHT22;15077;49.704;9.908;2023-08-17T00:51:36;25.20;62.60
27671;DHT22;15077;49.704;9.908;2023-08-17T00:54:04;25.20;62.60
27671;DHT22;15077;49.704;9.908;2023-08-17T00:56:30;25.10;62.60
27671;DHT22;15077;49.704;9.908;2023-08-17T00:58:56;25.00;62.60
27671;DHT22;15077;49.704;9.908;2023-08-17T01:01:22;25.00;62.80
27671;DHT22;15077;49.704;9.908;2023-08-17T01:03:50;25.00;62.90
27671;DHT22;15077;49.704;9.908;2023-08-17T01:06:19;25.00;62.90
27671;DHT22;15077;49.704;9.908;2023-08-17T01:08:46;25.00;63.00
27671;DHT22;15077;49.704;9.908;2023-08-17T01:11:47;25.00;63.60
27671;DHT22;15077;49.704;9.908;2023-08-17T01:17:30;24.90;63.30
27671;DHT22;15077;49.704;9.908;2023-08-17T01:20:04;24.80;63.70
27671;DHT22;15077;49.704;9.908;2023-08-17T01:22:41;24.80;63.70
27671;DHT22;15077;49.704;9.908;2023-08-17T01:25:12;24.70;63.80
27671;DHT22;15077;49.704;9.908;2023-08-17T01:27:45;24.70;63.80
27671;DHT22;15077;49.704;9.908;2023-08-17T01:30:15;24.70;64.00
27671;DHT22;15077;49.704;9.908;2023-08-17T01:33:20;24.70;64.00
27671;DHT22;15077;49.704;9.908;2023-08-17T01:35:47;24.70;64.20
27671;DHT22;15077;49.704;9.908;2023-08-17T01:38:29;24.70;64.10
27671;DHT22;15077;49.704;9.908;2023-08-17T01:40:57;24.70;64.00
27671;DHT22;15077;49.704;9.908;2023-08-17T01:43:25;24.70;64.00
27671;DHT22;15077;49.704;9.908;2023-08-17T01:45:54;24.70;64.00
27671;DHT22;15077;49.704;9.908;2023-08-17T01:48:21;24.60;64.00
27671;DHT22;15077;49.704;9.908;2023-08-17T01:50:49;24.70;64.10
27671;DHT22;15077;49.704;9.908;2023-08-17T01:53:17;24.60;64.10
27671;DHT22;15077;49.704;9.908;2023-08-17T01:55:44;24.60;64.00
27671;DHT22;15077;49.704;9.908;2023-08-17T01:58:11;24.60;64.00
27671;DHT22;15077;49.704;9.908;2023-08-17T02:00:39;24.60;64.10
27671;DHT22;15077;49.704;9.908;2023-08-17T02:03:05;24.60;64.00
27671;DHT22;15077;49.704;9.908;2023-08-17T02:05:32;24.50;63.90
27671;DHT22;15077;49.704;9.908;2023-08-17T02:07:59;24.50;64.00
27671;DHT22;15077;49.704;9.908;2023-08-17T02:10:26;24.50;64.10
27671;DHT22;15077;49.704;9.908;2023-08-17T02:12:53;24.50;64.10
27671;DHT22;15077;49.704;9.908;2023-08-17T02:15:19;24.50;64.10
27671;DHT22;15077;49.704;9.908;2023-08-17T02:17:45;24.50;64.10
27671;DHT22;15077;49.704;9.908;2023-08-17T02:20:12;24.50;64.10
27671;DHT22;15077;49.704;9.908;2023-08-17T02:22:39;24.40;64.10
27671;DHT22;15077;49.704;9.908;2023-08-17T02:25:06;24.40;64.20
27671;DHT22;15077;49.704;9.908;2023-08-17T02:27:34;24.40;64.20
27671;DHT22;15077;49.704;9.908;2023-08-17T02:30:02;24.40;64.20
27671;DHT22;15077;49.704;9.908;2023-08-17T02:32:28;24.40;64.20
27671;DHT22;15077;49.704;9.908;2023-08-17T02:34:55;24.40;64.20
27671;DHT22;15077;49.704;9.908;2023-08-17T02:37:23;24.40;64.20
27671;DHT22;15077;49.704;9.908;2023-08-17T02:39:50;24.30;64.20
27671;DHT22;15077;49.704;9.908;2023-08-17T02:42:16;24.30;64.20
27671;DHT22;15077;49.704;9.908;2023-08-17T02:44:42;24.30;64.20
27671;DHT22;15077;49.704;9.908;2023-08-17T02:47:10;24.30;64.30
27671;DHT22;15077;49.704;9.908;2023-08-17T02:49:37;24.20;64.30
27671;DHT22;15077;49.704;9.908;2023-08-17T02:52:04;24.20;64.30
27671;DHT22;15077;49.704;9.908;2023-08-17T02:54:32;24.20;64.30
27671;DHT22;15077;49.704;9.908;2023-08-17T02:56:59;24.20;64.30
27671;DHT22;15077;49.704;9.908;2023-08-17T02:59:26;24.20;64.30
27671;DHT22;15077;49.704;9.908;2023-08-17T03:01:53;24.10;64.30
27671;DHT22;15077;49.704;9.908;2023-08-17T03:04:19;24.10;64.30
27671;DHT22;15077;49.704;9.908;2023-08-17T03:06:48;24.10;64.30
27671;DHT22;15077;49.704;9.908;2023-08-17T03:09:14;24.10;64.40
27671;DHT22;15077;49.704;9.908;2023-08-17T03:11:40;24.10;64.40
27671;DHT22;15077;49.704;9.908;2023-08-17T03:14:07;24.10;64.40
27671;DHT22;15077;49.704;9.908;2023-08-17T03:16:35;24.00;64.40
27671;DHT22;15077;49.704;9.908;2023-08-17T03:19:03;24.00;64.40
27671;DHT22;15077;49.704;9.908;2023-08-17T03:21:29;24.00;64.40
27671;DHT22;15077;49.704;9.908;2023-08-17T03:23:55;24.00;64.50
27671;DHT22;15077;49.704;9.908;2023-08-17T03:26:21;23.90;64.40
27671;DHT22;15077;49.704;9.908;2023-08-17T03:28:46;23.90;64.40
27671;DHT22;15077;49.704;9.908;2023-08-17T03:31:13;23.90;64.50
27671;DHT22;15077;49.704;9.908;2023-08-17T03:33:40;23.90;64.50
27671;DHT22;15077;49.704;9.908;2023-08-17T03:36:07;23.90;64.50
27671;DHT22;15077;49.704;9.908;2023-08-17T03:38:35;23.90;64.60
27671;DHT22;15077;49.704;9.908;2023-08-17T03:41:05;23.80;64.60
27671;DHT22;15077;49.704;9.908;2023-08-17T03:43:31;23.80;64.60
27671;DHT22;15077;49.704;9.908;2023-08-17T03:45:58;23.80;64.60
27671;DHT22;15077;49.704;9.908;2023-08-17T03:48:25;23.80;64.70
27671;DHT22;15077;49.704;9.908;2023-08-17T03:50:56;23.70;64.60
27671;DHT22;15077;49.704;9.908;2023-08-17T03:53:22;23.70;64.70
27671;DHT22;15077;49.704;9.908;2023-08-17T03:55:48;23.70;64.70
27671;DHT22;15077;49.704;9.908;2023-08-17T03:58:16;23.70;64.80
27671;DHT22;15077;49.704;9.908;2023-08-17T04:00:48;23.60;64.80
27671;DHT22;15077;49.704;9.908;2023-08-17T04:03:14;23.60;65.00
27671;DHT22;15077;49.704;9.908;2023-08-17T04:05:41;23.60;64.90
27671;DHT22;15077;49.704;9.908;2023-08-17T04:08:09;23.60;64.90
27671;DHT22;15077;49.704;9.908;2023-08-17T04:10:37;23.60;65.00
27671;DHT22;15077;49.704;9.908;2023-08-17T04:13:04;23.60;65.60
27671;DHT22;15077;49.704;9.908;2023-08-17T04:15:31;23.50;64.90
27671;DHT22;15077;49.704;9.908;2023-08-17T04:17:58;23.50;64.90
27671;DHT22;15077;49.704;9.908;2023-08-17T04:20:24;23.50;64.90
27671;DHT22;15077;49.704;9.908;2023-08-17T04:22:51;23.50;65.00
27671;DHT22;15077;49.704;9.908;2023-08-17T04:25:16;23.50;65.00
27671;DHT22;15077;49.704;9.908;2023-08-17T04:27:42;23.50;65.10
27671;DHT22;15077;49.704;9.908;2023-08-17T04:30:09;23.50;65.10
27671;DHT22;15077;49.704;9.908;2023-08-17T04:32:35;23.50;65.20
27671;DHT22;15077;49.704;9.908;2023-08-17T04:35:01;23.40;65.20
27671;DHT22;15077;49.704;9.908;2023-08-17T04:37:27;23.40;65.20
27671;DHT22;15077;49.704;9.908;2023-08-17T04:39:53;23.40;65.20
27671;DHT22;15077;49.704;9.908;2023-08-17T04:42:19;23.40;65.20
27671;DHT22;15077;49.704;9.908;2023-08-17T04:44:47;23.40;65.30
27671;DHT22;15077;49.704;9.908;2023-08-17T04:47:13;23.40;65.30
27671;DHT22;15077;49.704;9.908;2023-08-17T04:49:38;23.40;65.30
27671;DHT22;15077;49.704;9.908;2023-08-17T04:52:04;23.40;65.40
27671;DHT22;15077;49.704;9.908;2023-08-17T04:54:30;23.40;65.40
27671;DHT22;15077;49.704;9.908;2023-08-17T04:56:57;23.40;65.50
27671;DHT22;15077;49.704;9.908;2023-08-17T04:59:22;23.40;65.60
27671;DHT22;15077;49.704;9.908;2023-08-17T05:01:48;23.40;65.70
27671;DHT22;15077;49.704;9.908;2023-08-17T05:04:14;23.40;65.70
27671;DHT22;15077;49.704;9.908;2023-08-17T05:06:40;23.40;65.80
27671;DHT22;15077;49.704;9.908;2023-08-17T05:09:06;23.40;65.90
27671;DHT22;15077;49.704;9.908;2023-08-17T05:11:32;23.40;66.10
27671;DHT22;15077;49.704;9.908;2023-08-17T05:13:58;23.40;66.10
27671;DHT22;15077;49.704;9.908;2023-08-17T05:16:23;23.40;66.20
27671;DHT22;15077;49.704;9.908;2023-08-17T05:18:49;23.40;66.20
27671;DHT22;15077;49.704;9.908;2023-08-17T05:21:15;23.40;66.20
27671;DHT22;15077;49.704;9.908;2023-08-17T05:23:40;23.40;66.40
27671;DHT22;15077;49.704;9.908;2023-08-17T05:26:06;23.40;66.30
27671;DHT22;15077;49.704;9.908;2023-08-17T05:28:33;23.40;66.40
27671;DHT22;15077;49.704;9.908;2023-08-17T05:31:05;23.40;66.50
27671;DHT22;15077;49.704;9.908;2023-08-17T05:33:32;23.40;66.80
27671;DHT22;15077;49.704;9.908;2023-08-17T05:35:58;23.40;66.70
27671;DHT22;15077;49.704;9.908;2023-08-17T05:38:24;23.50;66.80
27671;DHT22;15077;49.704;9.908;2023-08-17T05:40:56;23.50;66.80
27671;DHT22;15077;49.704;9.908;2023-08-17T05:43:23;23.50;67.10
27671;DHT22;15077;49.704;9.908;2023-08-17T05:45:49;23.50;66.80
27671;DHT22;15077;49.704;9.908;2023-08-17T05:48:15;23.50;67.00
27671;DHT22;15077;49.704;9.908;2023-08-17T05:50:42;23.50;67.00
27671;DHT22;15077;49.704;9.908;2023-08-17T05:53:08;23.60;67.20
27671;DHT22;15077;49.704;9.908;2023-08-17T05:55:34;23.60;67.10
27671;DHT22;15077;49.704;9.908;2023-08-17T05:58:00;23.60;67.20
27671;DHT22;15077;49.704;9.908;2023-08-17T06:00:27;23.60;67.60
27671;DHT22;15077;49.704;9.908;2023-08-17T06:02:53;23.60;67.50
27671;DHT22;15077;49.704;9.908;2023-08-17T06:05:23;23.60;67.50
27671;DHT22;15077;49.704;9.908;2023-08-17T06:07:51;23.70;67.70
27671;DHT22;15077;49.704;9.908;2023-08-17T06:10:17;23.70;68.00
27671;DHT22;15077;49.704;9.908;2023-08-17T06:12:42;23.70;68.00
27671;DHT22;15077;49.704;9.908;2023-08-17T06:15:08;23.80;68.20
27671;DHT22;15077;49.704;9.908;2023-08-17T06:17:34;23.80;68.50
27671;DHT22;15077;49.704;9.908;2023-08-17T06:20:00;23.80;68.50
27671;DHT22;15077;49.704;9.908;2023-08-17T06:22:26;23.80;68.90
27671;DHT22;15077;49.704;9.908;2023-08-17T06:24:52;23.70;68.80
27671;DHT22;15077;49.704;9.908;2023-08-17T06:27:18;23.80;68.50
27671;DHT22;15077;49.704;9.908;2023-08-17T06:29:44;23.80;68.70
27671;DHT22;15077;49.704;9.908;2023-08-17T06:32:10;23.80;68.60
27671;DHT22;15077;49.704;9.908;2023-08-17T06:34:35;23.80;68.60
27671;DHT22;15077;49.704;9.908;2023-08-17T06:37:03;23.80;68.60
27671;DHT22;15077;49.704;9.908;2023-08-17T06:39:29;23.80;68.40
27671;DHT22;15077;49.704;9.908;2023-08-17T06:41:55;23.90;68.60
27671;DHT22;15077;49.704;9.908;2023-08-17T06:44:21;23.90;68.60
27671;DHT22;15077;49.704;9.908;2023-08-17T06:46:47;23.90;68.30
27671;DHT22;15077;49.704;9.908;2023-08-17T06:49:12;24.00;68.50
27671;DHT22;15077;49.704;9.908;2023-08-17T06:51:38;24.00;69.10
27671;DHT22;15077;49.704;9.908;2023-08-17T06:54:07;24.10;69.70
27671;DHT22;15077;49.704;9.908;2023-08-17T06:56:33;24.10;69.70
27671;DHT22;15077;49.704;9.908;2023-08-17T06:58:59;24.20;69.60
27671;DHT22;15077;49.704;9.908;2023-08-17T07:01:24;24.20;69.80
27671;DHT22;15077;49.704;9.908;2023-08-17T07:03:50;24.20;70.50
27671;DHT22;15077;49.704;9.908;2023-08-17T07:06:16;24.30;70.60
27671;DHT22;15077;49.704;9.908;2023-08-17T07:08:41;24.30;70.80
27671;DHT22;15077;49.704;9.908;2023-08-17T07:11:07;24.40;70.40
27671;DHT22;15077;49.704;9.908;2023-08-17T07:13:34;24.40;70.40
27671;DHT22;15077;49.704;9.908;2023-08-17T07:15:59;24.50;70.30
27671;DHT22;15077;49.704;9.908;2023-08-17T07:18:25;24.50;70.30
27671;DHT22;15077;49.704;9.908;2023-08-17T07:20:51;24.50;70.50
27671;DHT22;15077;49.704;9.908;2023-08-17T07:23:16;24.60;70.70
27671;DHT22;15077;49.704;9.908;2023-08-17T07:25:42;24.70;71.00
27671;DHT22;15077;49.704;9.908;2023-08-17T07:28:09;24.70;71.20
27671;DHT22;15077;49.704;9.908;2023-08-17T07:30:35;24.80;71.40
27671;DHT22;15077;49.704;9.908;2023-08-17T07:33:01;24.80;71.00
27671;DHT22;15077;49.704;9.908;2023-08-17T07:35:27;24.80;70.80
27671;DHT22;15077;49.704;9.908;2023-08-17T07:37:52;24.90;70.60
27671;DHT22;15077;49.704;9.908;2023-08-17T07:40:18;24.90;70.60
27671;DHT22;15077;49.704;9.908;2023-08-17T07:42:45;25.00;70.40
27671;DHT22;15077;49.704;9.908;2023-08-17T07:45:12;25.00;70.30
27671;DHT22;15077;49.704;9.908;2023-08-17T07:47:38;25.00;70.50
27671;DHT22;15077;49.704;9.908;2023-08-17T07:50:05;25.10;70.90
27671;DHT22;15077;49.704;9.908;2023-08-17T07:52:32;25.20;71.30
27671;DHT22;15077;49.704;9.908;2023-08-17T07:54:57;25.20;71.20
27671;DHT22;15077;49.704;9.908;2023-08-17T07:57:23;25.20;71.00
27671;DHT22;15077;49.704;9.908;2023-08-17T07:59:49;25.30;71.60
27671;DHT22;15077;49.704;9.908;2023-08-17T08:02:15;25.30;70.80
27671;DHT22;15077;49.704;9.908;2023-08-17T08:04:40;25.40;70.80
27671;DHT22;15077;49.704;9.908;2023-08-17T08:07:06;25.40;70.80
27671;DHT22;15077;49.704;9.908;2023-08-17T08:09:32;25.40;70.80
27671;DHT22;15077;49.704;9.908;2023-08-17T08:11:58;25.50;71.10
27671;DHT22;15077;49.704;9.908;2023-08-17T08:14:23;25.60;70.90
27671;DHT22;15077;49.704;9.908;2023-08-17T08:16:49;25.60;70.90
27671;DHT22;15077;49.704;9.908;2023-08-17T08:19:15;25.70;70.80
27671;DHT22;15077;49.704;9.908;2023-08-17T08:21:40;25.70;71.50
27671;DHT22;15077;49.704;9.908;2023-08-17T08:24:06;25.80;70.80
27671;DHT22;15077;49.704;9.908;2023-08-17T08:26:32;25.80;71.20
27671;DHT22;15077;49.704;9.908;2023-08-17T08:28:58;25.90;71.20
27671;DHT22;15077;49.704;9.908;2023-08-17T08:31:24;26.00;71.00
27671;DHT22;15077;49.704;9.908;2023-08-17T08:33:49;26.00;70.90
27671;DHT22;15077;49.704;9.908;2023-08-17T08:36:17;26.10;70.80
27671;DHT22;15077;49.704;9.908;2023-08-17T08:38:42;26.20;71.40
27671;DHT22;15077;49.704;9.908;2023-08-17T08:41:11;26.20;71.20
27671;DHT22;15077;49.704;9.908;2023-08-17T08:43:38;26.30;71.10
27671;DHT22;15077;49.704;9.908;2023-08-17T08:46:04;26.40;71.80
27671;DHT22;15077;49.704;9.908;2023-08-17T08:48:32;26.50;71.00
27671;DHT22;15077;49.704;9.908;2023-08-17T08:51:01;26.60;71.10
27671;DHT22;15077;49.704;9.908;2023-08-17T08:53:37;26.60;70.70
27671;DHT22;15077;49.704;9.908;2023-08-17T08:56:10;26.70;70.60
27671;DHT22;15077;49.704;9.908;2023-08-17T08:58:41;26.80;71.30
27671;DHT22;15077;49.704;9.908;2023-08-17T09:01:10;26.90;71.40
27671;DHT22;15077;49.704;9.908;2023-08-17T09:03:36;27.10;70.80
27671;DHT22;15077;49.704;9.908;2023-08-17T09:06:03;27.10;70.30
27671;DHT22;15077;49.704;9.908;2023-08-17T09:08:30;27.30;70.30
27671;DHT22;15077;49.704;9.908;2023-08-17T09:10:57;27.40;70.40
27671;DHT22;15077;49.704;9.908;2023-08-17T09:13:23;27.40;70.30
27671;DHT22;15077;49.704;9.908;2023-08-17T09:15:49;27.60;70.10
27671;DHT22;15077;49.704;9.908;2023-08-17T09:18:15;27.70;70.10
27671;DHT22;15077;49.704;9.908;2023-08-17T09:20:46;27.80;70.10
27671;DHT22;15077;49.704;9.908;2023-08-17T09:23:14;27.90;70.10
27671;DHT22;15077;49.704;9.908;2023-08-17T09:25:43;28.00;70.00
27671;DHT22;15077;49.704;9.908;2023-08-17T09:28:11;28.20;69.70
27671;DHT22;15077;49.704;9.908;2023-08-17T09:31:02;28.30;69.70
27671;DHT22;15077;49.704;9.908;2023-08-17T09:33:31;28.40;69.50
27671;DHT22;15077;49.704;9.908;2023-08-17T09:35:58;28.50;69.30
27671;DHT22;15077;49.704;9.908;2023-08-17T09:38:25;28.60;69.30
27671;DHT22;15077;49.704;9.908;2023-08-17T09:40:52;28.70;69.10
27671;DHT22;15077;49.704;9.908;2023-08-17T09:43:19;28.80;69.10
27671;DHT22;15077;49.704;9.908;2023-08-17T09:45:47;29.00;69.30
27671;DHT22;15077;49.704;9.908;2023-08-17T09:48:17;29.10;69.00
27671;DHT22;15077;49.704;9.908;2023-08-17T09:50:45;29.30;68.90
27671;DHT22;15077;49.704;9.908;2023-08-17T09:53:18;29.40;68.40
27671;DHT22;15077;49.704;9.908;2023-08-17T09:55:45;29.60;68.10
27671;DHT22;15077;49.704;9.908;2023-08-17T09:58:12;29.70;67.50
27671;DHT22;15077;49.704;9.908;2023-08-17T10:00:46;29.70;67.40
27671;DHT22;15077;49.704;9.908;2023-08-17T10:03:15;29.90;66.90
27671;DHT22;15077;49.704;9.908;2023-08-17T10:05:44;29.90;67.00
27671;DHT22;15077;49.704;9.908;2023-08-17T10:08:17;30.00;67.30
27671;DHT22;15077;49.704;9.908;2023-08-17T10:10:46;30.00;67.30
27671;DHT22;15077;49.704;9.908;2023-08-17T10:13:35;30.10;68.00
27671;DHT22;15077;49.704;9.908;2023-08-17T10:16:22;30.30;67.40
27671;DHT22;15077;49.704;9.908;2023-08-17T10:19:14;30.50;66.80
27671;DHT22;15077;49.704;9.908;2023-08-17T10:21:50;30.60;66.20
27671;DHT22;15077;49.704;9.908;2023-08-17T10:24:23;30.60;65.50
27671;DHT22;15077;49.704;9.908;2023-08-17T10:26:49;30.70;66.00
27671;DHT22;15077;49.704;9.908;2023-08-17T10:29:15;30.80;66.20
27671;DHT22;15077;49.704;9.908;2023-08-17T10:31:45;30.90;66.30
27671;DHT22;15077;49.704;9.908;2023-08-17T10:34:13;31.00;66.20
27671;DHT22;15077;49.704;9.908;2023-08-17T10:36:40;31.10;65.40
27671;DHT22;15077;49.704;9.908;2023-08-17T10:39:20;31.20;65.30
27671;DHT22;15077;49.704;9.908;2023-08-17T10:41:47;31.30;65.90
27671;DHT22;15077;49.704;9.908;2023-08-17T10:44:18;31.40;65.30
27671;DHT22;15077;49.704;9.908;2023-08-17T10:47:23;31.50;64.10
27671;DHT22;15077;49.704;9.908;2023-08-17T10:49:57;31.60;64.00
27671;DHT22;15077;49.704;9.908;2023-08-17T10:52:32;31.70;63.40
27671;DHT22;15077;49.704;9.908;2023-08-17T10:55:00;31.70;63.50
27671;DHT22;15077;49.704;9.908;2023-08-17T10:57:32;31.80;63.60
27671;DHT22;15077;49.704;9.908;2023-08-17T11:00:22;31.80;63.60
27671;DHT22;15077;49.704;9.908;2023-08-17T11:08:32;32.10;62.80
27671;DHT22;15077;49.704;9.908;2023-08-17T11:11:07;32.20;62.70
27671;DHT22;15077;49.704;9.908;2023-08-17T11:13:38;32.30;63.10
27671;DHT22;15077;49.704;9.908;2023-08-17T11:16:06;32.40;62.80
27671;DHT22;15077;49.704;9.908;2023-08-17T11:18:34;32.40;63.10
27671;DHT22;15077;49.704;9.908;2023-08-17T11:21:02;32.50;62.10
27671;DHT22;15077;49.704;9.908;2023-08-17T11:23:33;32.60;61.50
27671;DHT22;15077;49.704;9.908;2023-08-17T11:26:00;32.70;61.00
27671;DHT22;15077;49.704;9.908;2023-08-17T11:28:26;32.80;61.40
27671;DHT22;15077;49.704;9.908;2023-08-17T11:31:03;32.80;60.50
27671;DHT22;15077;49.704;9.908;2023-08-17T11:33:31;32.90;60.60
27671;DHT22;15077;49.704;9.908;2023-08-17T11:35:59;32.90;60.70
27671;DHT22;15077;49.704;9.908;2023-08-17T11:38:26;33.00;60.80
27671;DHT22;15077;49.704;9.908;2023-08-17T11:40:57;33.00;60.20
27671;DHT22;15077;49.704;9.908;2023-08-17T11:43:25;33.10;58.70
27671;DHT22;15077;49.704;9.908;2023-08-17T11:45:52;33.20;59.40
27671;DHT22;15077;49.704;9.908;2023-08-17T11:48:21;33.20;58.80
27671;DHT22;15077;49.704;9.908;2023-08-17T11:50:48;33.30;59.10
27671;DHT22;15077;49.704;9.908;2023-08-17T11:53:14;33.30;59.30
27671;DHT22;15077;49.704;9.908;2023-08-17T11:55:40;33.40;59.80
27671;DHT22;15077;49.704;9.908;2023-08-17T11:58:06;33.50;59.30
27671;DHT22;15077;49.704;9.908;2023-08-17T12:00:50;33.50;59.10
27671;DHT22;15077;49.704;9.908;2023-08-17T12:03:16;33.60;58.90
27671;DHT22;15077;49.704;9.908;2023-08-17T12:05:44;33.60;59.00
27671;DHT22;15077;49.704;9.908;2023-08-17T12:08:12;33.70;59.40
27671;DHT22;15077;49.704;9.908;2023-08-17T12:10:40;33.70;58.70
27671;DHT22;15077;49.704;9.908;2023-08-17T12:13:05;33.80;58.50
27671;DHT22;15077;49.704;9.908;2023-08-17T12:15:33;33.80;57.30
27671;DHT22;15077;49.704;9.908;2023-08-17T12:18:03;33.80;57.30
27671;DHT22;15077;49.704;9.908;2023-08-17T12:20:31;33.80;57.70
27671;DHT22;15077;49.704;9.908;2023-08-17T12:23:02;33.70;57.70
27671;DHT22;15077;49.704;9.908;2023-08-17T12:25:28;33.70;57.90
27671;DHT22;15077;49.704;9.908;2023-08-17T12:27:58;33.70;57.90
27671;DHT22;15077;49.704;9.908;2023-08-17T12:30:30;33.70;58.10
27671;DHT22;15077;49.704;9.908;2023-08-17T12:32:58;33.80;58.10
27671;DHT22;15077;49.704;9.908;2023-08-17T12:35:25;33.80;58.30
27671;DHT22;15077;49.704;9.908;2023-08-17T12:37:52;33.90;58.20
27671;DHT22;15077;49.704;9.908;2023-08-17T12:40:19;33.90;57.20
27671;DHT22;15077;49.704;9.908;2023-08-17T12:42:45;33.90;56.80
27671;DHT22;15077;49.704;9.908;2023-08-17T12:45:11;34.00;56.00
27671;DHT22;15077;49.704;9.908;2023-08-17T12:47:36;33.90;55.60
27671;DHT22;15077;49.704;9.908;2023-08-17T12:50:04;33.90;55.40
27671;DHT22;15077;49.704;9.908;2023-08-17T12:52:30;33.90;55.90
27671;DHT22;15077;49.704;9.908;2023-08-17T12:54:55;33.90;55.40
27671;DHT22;15077;49.704;9.908;2023-08-17T12:57:21;33.90;55.40
27671;DHT22;15077;49.704;9.908;2023-08-17T12:59:47;33.90;56.10
27671;DHT22;15077;49.704;9.908;2023-08-17T13:02:13;33.90;56.30
27671;DHT22;15077;49.704;9.908;2023-08-17T13:04:39;33.90;56.00
27671;DHT22;15077;49.704;9.908;2023-08-17T13:07:05;34.00;55.90
27671;DHT22;15077;49.704;9.908;2023-08-17T13:09:31;34.00;55.40
27671;DHT22;15077;49.704;9.908;2023-08-17T13:11:57;34.00;55.50
27671;DHT22;15077;49.704;9.908;2023-08-17T13:14:23;34.10;55.30
27671;DHT22;15077;49.704;9.908;2023-08-17T13:16:51;34.10;55.10
27671;DHT22;15077;49.704;9.908;2023-08-17T13:19:18;34.10;55.10
27671;DHT22;15077;49.704;9.908;2023-08-17T13:21:44;34.10;55.50
27671;DHT22;15077;49.704;9.908;2023-08-17T13:24:10;34.20;55.90
27671;DHT22;15077;49.704;9.908;2023-08-17T13:26:36;34.20;55.70
27671;DHT22;15077;49.704;9.908;2023-08-17T13:29:02;34.30;54.70
27671;DHT22;15077;49.704;9.908;2023-08-17T13:31:29;34.30;55.00
27671;DHT22;15077;49.704;9.908;2023-08-17T13:33:55;34.40;55.20
27671;DHT22;15077;49.704;9.908;2023-08-17T13:36:21;34.40;55.40
27671;DHT22;15077;49.704;9.908;2023-08-17T13:38:46;34.50;54.90
27671;DHT22;15077;49.704;9.908;2023-08-17T13:41:12;34.50;54.60
27671;DHT22;15077;49.704;9.908;2023-08-17T13:43:38;34.50;55.10
27671;DHT22;15077;49.704;9.908;2023-08-17T13:46:04;34.60;55.20
27671;DHT22;15077;49.704;9.908;2023-08-17T13:48:30;34.70;55.40
27671;DHT22;15077;49.704;9.908;2023-08-17T13:50:56;34.80;55.50
27671;DHT22;15077;49.704;9.908;2023-08-17T13:56:25;35.00;54.80
27671;DHT22;15077;49.704;9.908;2023-08-17T13:58:51;35.00;54.50
27671;DHT22;15077;49.704;9.908;2023-08-17T14:01:17;35.00;54.40
27671;DHT22;15077;49.704;9.908;2023-08-17T14:03:43;35.00;54.40
27671;DHT22;15077;49.704;9.908;2023-08-17T14:06:09;35.00;54.00
27671;DHT22;15077;49.704;9.908;2023-08-17T14:08:35;35.00;54.20
27671;DHT22;15077;49.704;9.908;2023-08-17T14:11:01;35.00;54.20
27671;DHT22;15077;49.704;9.908;2023-08-17T14:13:27;35.00;53.70
27671;DHT22;15077;49.704;9.908;2023-08-17T14:15:52;35.00;53.70
27671;DHT22;15077;49.704;9.908;2023-08-17T14:18:21;35.00;53.50
27671;DHT22;15077;49.704;9.908;2023-08-17T14:20:47;35.00;53.70
27671;DHT22;15077;49.704;9.908;2023-08-17T14:23:13;34.90;53.60
27671;DHT22;15077;49.704;9.908;2023-08-17T14:25:39;34.80;53.80
27671;DHT22;15077;49.704;9.908;2023-08-17T14:28:05;34.90;53.80
27671;DHT22;15077;49.704;9.908;2023-08-17T14:30:33;34.80;53.60
27671;DHT22;15077;49.704;9.908;2023-08-17T14:32:58;34.80;53.60
27671;DHT22;15077;49.704;9.908;2023-08-17T14:35:25;34.80;53.90
27671;DHT22;15077;49.704;9.908;2023-08-17T14:37:52;34.70;53.50
27671;DHT22;15077;49.704;9.908;2023-08-17T14:40:18;34.70;53.50
27671;DHT22;15077;49.704;9.908;2023-08-17T14:42:44;34.70;53.40
27671;DHT22;15077;49.704;9.908;2023-08-17T14:45:11;34.60;53.40
27671;DHT22;15077;49.704;9.908;2023-08-17T14:47:37;34.50;53.40
27671;DHT22;15077;49.704;9.908;2023-08-17T14:50:02;34.40;53.40
27671;DHT22;15077;49.704;9.908;2023-08-17T14:52:28;34.30;53.50
27671;DHT22;15077;49.704;9.908;2023-08-17T14:54:55;34.30;53.20
27671;DHT22;15077;49.704;9.908;2023-08-17T14:57:20;34.20;53.10
27671;DHT22;15077;49.704;9.908;2023-08-17T14:59:46;34.10;53.10
27671;DHT22;15077;49.704;9.908;2023-08-17T15:02:12;34.10;53.20
27671;DHT22;15077;49.704;9.908;2023-08-17T15:04:39;34.00;53.10
27671;DHT22;15077;49.704;9.908;2023-08-17T15:07:05;34.00;53.20
27671;DHT22;15077;49.704;9.908;2023-08-17T15:09:36;33.90;53.10
27671;DHT22;15077;49.704;9.908;2023-08-17T15:12:03;33.90;53.40
27671;DHT22;15077;49.704;9.908;2023-08-17T15:14:29;33.80;53.20
27671;DHT22;15077;49.704;9.908;2023-08-17T15:16:54;33.70;53.10
27671;DHT22;15077;49.704;9.908;2023-08-17T15:19:20;33.70;53.30
27671;DHT22;15077;49.704;9.908;2023-08-17T15:21:46;33.70;53.50
27671;DHT22;15077;49.704;9.908;2023-08-17T15:24:12;33.60;53.50
27671;DHT22;15077;49.704;9.908;2023-08-17T15:26:38;33.50;53.50
27671;DHT22;15077;49.704;9.908;2023-08-17T15:29:04;33.50;53.60
27671;DHT22;15077;49.704;9.908;2023-08-17T15:31:29;33.40;53.70
27671;DHT22;15077;49.704;9.908;2023-08-17T15:33:55;33.40;53.80
27671;DHT22;15077;49.704;9.908;2023-08-17T15:36:21;33.30;53.80
27671;DHT22;15077;49.704;9.908;2023-08-17T15:38:49;33.30;53.90
27671;DHT22;15077;49.704;9.908;2023-08-17T15:41:17;33.20;54.10
27671;DHT22;15077;49.704;9.908;2023-08-17T15:43:45;33.20;54.40